Darstellungsparameter: Aktuell verwendete Einstellungen:
Skalierung der Graphiken ... ?
xyx+y,   Skalierungsfaktor:      Skalierung: Modus: x, Faktor: 1
Darstellungszeitraum ... ?
Vom - - bis: - -   Zeitraum: 01.06.2014 - 07.06.2014
Min/Max/Avg-Anzeige ... ?
Zeige MMA aktuell
Zeige MMA Monat
Zeige MMA alles
Zeige --A aktuell
Zeige --A Monat
Zeige --A alles
Keine MMA-Anzeige
MMA:
Keine MMA-Graphiken
MMA-Basis: 01.06.2014 - 07.06.2014
Quicknavigation für Darstellung... ?
Tage:      1T, 2T, 3T, 5T -1T -2T -3T -5T +1T +2T +3T +5T
Wochen: 1W, 2W, 3W -1W -2W -3W +1W +2W +3W
Monate: 1M, 3M, 6M -1M -3M -6M +1M +3M +6M
Jahre:    1J, 3J, 5J, 10J -1J -3J -5J -10J +1J +3J +5J +10J
Nutze für die Darstellung ... ?
Originaldaten oder ...
Mittelwerte Minima Maxima auf...
Stundenbasis Tagesbasis Wochenbasis
Monatsbasis Jahresbasis      Datenbasis: Mittelwerte auf Stundenbasis
Darstellen als:
Statistik (Auto) Statistik J:M      Darstellung:
Zur Graphik,    zurück zur Übersicht aller Sensoren.
 
Tabellarische Datenbersicht: ?
 
Sensor: Nr:Datum:Temp:Abs-Feuchte:Windchill:Wind:
Aussen-T/F 1 01-06-2014 00:00:00 12.4 C 9 g/m*3 12.4 C 0 km/h
2 01-06-2014 01:00:00 12.20833 C 8.96 g/m*3 12.21 C 0.26667 km/h
3 01-06-2014 02:00:00 11.46667 C 8.73 g/m*3 11.47 C 0.13333 km/h
4 01-06-2014 03:00:00 10.46667 C 8.44 g/m*3 10.47 C 0.26667 km/h
5 01-06-2014 04:00:00 10.24167 C 8.52 g/m*3 10.24 C 0 km/h
6 01-06-2014 05:00:00 10.43333 C 8.7 g/m*3 10.43 C 0.26667 km/h
7 01-06-2014 06:00:00 11.49167 C 8.86 g/m*3 11.49 C 1.86667 km/h
8 01-06-2014 07:00:00 12.125 C 8.93 g/m*3 12.13 C 1.46667 km/h
9 01-06-2014 08:00:00 13.00833 C 9.18 g/m*3 13.01 C 1.46667 km/h
10 01-06-2014 09:00:00 14.00833 C 9.51 g/m*3 14.01 C 2.66667 km/h
11 01-06-2014 10:00:00 16.35833 C 9.7 g/m*3 16.36 C 4.54167 km/h
12 01-06-2014 11:00:00 18.25 C 9.55 g/m*3 18.25 C 7.39167 km/h
13 01-06-2014 12:00:00 19.86667 C 9.55 g/m*3 19.87 C 8.33333 km/h
14 01-06-2014 13:00:00 20.75833 C 9.35 g/m*3 20.76 C 8.61667 km/h
15 01-06-2014 14:00:00 20.36 C 8.79 g/m*3 20.36 C 10.34 km/h
16 01-06-2014 15:00:00 21.95556 C 8.86 g/m*3 21.96 C 11.65556 km/h
17 01-06-2014 16:00:00 20.96667 C 8.8 g/m*3 20.97 C 10.76667 km/h
18 01-06-2014 17:00:00 20.24167 C 8.5 g/m*3 20.24 C 10.225 km/h
19 01-06-2014 18:00:00 19.425 C 8.15 g/m*3 19.43 C 8.475 km/h
20 01-06-2014 19:00:00 19.1 C 8.11 g/m*3 19.1 C 6.84167 km/h
21 01-06-2014 20:00:00 17.80833 C 8.57 g/m*3 17.81 C 2 km/h
22 01-06-2014 21:00:00 15.69167 C 9.46 g/m*3 15.69 C 0.13333 km/h
23 01-06-2014 22:00:00 15.03333 C 9.35 g/m*3 15.03 C 0.4 km/h
24 01-06-2014 23:00:00 13.98333 C 9.02 g/m*3 13.98 C 0.4 km/h
25 02-06-2014 00:00:00 13.45 C 9.01 g/m*3 13.45 C 0 km/h
Sensor: Nr:Datum:Temp:Abs-Feuchte:Windchill:Wind:
Aussen-T/F 26 02-06-2014 01:00:00 13.025 C 8.79 g/m*3 13.03 C 0.26667 km/h
27 02-06-2014 02:00:00 11.6 C 8.38 g/m*3 11.6 C 0.13333 km/h
28 02-06-2014 03:00:00 10.28333 C 8.16 g/m*3 10.28 C 0 km/h
29 02-06-2014 04:00:00 9.375 C 8.01 g/m*3 9.38 C 0 km/h
30 02-06-2014 05:00:00 8.79167 C 7.93 g/m*3 8.79 C 0 km/h
31 02-06-2014 06:00:00 8.79167 C 8.04 g/m*3 8.79 C 0.26667 km/h
32 02-06-2014 07:00:00 9.70833 C 8.36 g/m*3 9.71 C 2.26667 km/h
33 02-06-2014 08:00:00 11.5 C 8.96 g/m*3 11.5 C 0 km/h
34 02-06-2014 09:00:00 14.41111 C 9.81 g/m*3 14.41 C 1.42222 km/h
35 02-06-2014 10:00:00 15.7 C 9.68 g/m*3 15.7 C 2.84444 km/h
36 02-06-2014 12:00:00 20.8 C 9.05 g/m*3 20.8 C 7.53333 km/h
37 02-06-2014 13:00:00 21.07143 C 8.8 g/m*3 21.07 C 6.67143 km/h
38 02-06-2014 14:00:00 21.85 C 9.08 g/m*3 21.85 C 7.38333 km/h
39 02-06-2014 15:00:00 22.56667 C 8.69 g/m*3 22.57 C 6.55 km/h
40 02-06-2014 16:00:00 22.925 C 8.58 g/m*3 22.93 C 7.11667 km/h
41 02-06-2014 17:00:00 23.75455 C 8.54 g/m*3 23.75 C 8.20909 km/h
42 02-06-2014 18:00:00 23.61667 C 8.52 g/m*3 23.62 C 7.25 km/h
43 02-06-2014 19:00:00 22.45833 C 8.22 g/m*3 22.46 C 6.98333 km/h
44 02-06-2014 20:00:00 20.15 C 9.09 g/m*3 20.15 C 3.06667 km/h
45 02-06-2014 21:00:00 16.88333 C 9.84 g/m*3 16.88 C 0.4 km/h
46 02-06-2014 22:00:00 16.00833 C 9.5 g/m*3 16.01 C 0 km/h
47 02-06-2014 23:00:00 15.58333 C 9.33 g/m*3 15.58 C 0.26667 km/h
48 03-06-2014 00:00:00 14.56667 C 9.26 g/m*3 14.57 C 0 km/h
49 03-06-2014 01:00:00 13.43333 C 9.14 g/m*3 13.43 C 0 km/h
50 03-06-2014 02:00:00 12.24167 C 8.88 g/m*3 12.24 C 0.53333 km/h
Sensor: Nr:Datum:Temp:Abs-Feuchte:Windchill:Wind:
Aussen-T/F 51 03-06-2014 03:00:00 11.125 C 8.65 g/m*3 11.13 C 0 km/h
52 03-06-2014 04:00:00 10.31667 C 8.5 g/m*3 10.32 C 0 km/h
53 03-06-2014 05:00:00 9.83333 C 8.5 g/m*3 9.83 C 0 km/h
54 03-06-2014 06:00:00 10.15833 C 8.74 g/m*3 10.16 C 1.33333 km/h
55 03-06-2014 07:00:00 11.38333 C 9.15 g/m*3 11.38 C 3.2 km/h
56 03-06-2014 08:00:00 13.01667 C 9.49 g/m*3 13.02 C 2.8 km/h
57 03-06-2014 09:00:00 14.48333 C 9.96 g/m*3 14.48 C 1.46667 km/h
58 03-06-2014 10:00:00 17.89167 C 10.77 g/m*3 17.89 C 2.26667 km/h
59 03-06-2014 11:00:00 19.46667 C 11.05 g/m*3 19.47 C 3.06667 km/h
60 03-06-2014 12:00:00 18.825 C 11.37 g/m*3 18.83 C 1.2 km/h
61 03-06-2014 13:00:00 22.68333 C 8.9 g/m*3 22.68 C 5.21667 km/h
62 03-06-2014 14:00:00 20.8625 C 10.24 g/m*3 20.86 C 6.225 km/h
63 03-06-2014 15:00:00 19.96667 C 9.7 g/m*3 19.97 C 7.65833 km/h
64 03-06-2014 16:00:00 19.85833 C 10.74 g/m*3 19.86 C 1.34167 km/h
65 03-06-2014 17:00:00 19 C 11.71 g/m*3 19 C 0.26667 km/h
66 03-06-2014 18:00:00 20.64167 C 10.72 g/m*3 20.64 C 3.06667 km/h
67 03-06-2014 19:00:00 19.35 C 11.62 g/m*3 19.35 C 0.4 km/h
68 03-06-2014 20:00:00 17.025 C 11.16 g/m*3 17.02 C 0.4 km/h
69 03-06-2014 21:00:00 16.15833 C 10.73 g/m*3 16.16 C 0.26667 km/h
70 03-06-2014 22:00:00 14.65 C 9.94 g/m*3 14.65 C 0 km/h
71 03-06-2014 23:00:00 13.63333 C 9.77 g/m*3 13.63 C 0.66667 km/h
72 04-06-2014 00:00:00 12.96667 C 9.76 g/m*3 12.97 C 0.13333 km/h
73 04-06-2014 01:00:00 12.23333 C 9.55 g/m*3 12.23 C 0 km/h
74 04-06-2014 02:00:00 11.59167 C 9.44 g/m*3 11.59 C 0.26667 km/h
75 04-06-2014 03:00:00 11 C 9.27 g/m*3 11 C 0 km/h
Sensor: Nr:Datum:Temp:Abs-Feuchte:Windchill:Wind:
Aussen-T/F 76 04-06-2014 04:00:00 10.65833 C 9.2 g/m*3 10.66 C 0.4 km/h
77 04-06-2014 05:00:00 10.85 C 9.35 g/m*3 10.85 C 0 km/h
78 04-06-2014 06:00:00 11.60833 C 9.66 g/m*3 11.61 C 0.4 km/h
79 04-06-2014 07:00:00 12.94167 C 10.05 g/m*3 12.94 C 0.13333 km/h
80 04-06-2014 08:00:00 15.65 C 10.99 g/m*3 15.65 C 1.86667 km/h
81 04-06-2014 09:00:00 17.95 C 11.12 g/m*3 17.95 C 6.3 km/h
82 04-06-2014 11:00:00 20.675 C 12 g/m*3 20.68 C 4 km/h
83 04-06-2014 12:00:00 20.16667 C 11.44 g/m*3 20.17 C 5.63333 km/h
84 04-06-2014 13:00:00 17.975 C 11.29 g/m*3 17.98 C 9.675 km/h
85 04-06-2014 14:00:00 16.95 C 12.14 g/m*3 16.95 C 1.73333 km/h
86 04-06-2014 15:00:00 17.44167 C 13.06 g/m*3 17.44 C 1.86667 km/h
87 04-06-2014 16:00:00 17.09167 C 13.3 g/m*3 17.09 C 0.13333 km/h
88 04-06-2014 17:00:00 16.60833 C 13.3 g/m*3 16.61 C 0.8 km/h
89 04-06-2014 18:00:00 16.76667 C 13.22 g/m*3 16.77 C 0.8 km/h
90 04-06-2014 19:00:00 17.9 C 13.47 g/m*3 17.9 C 1 km/h
91 04-06-2014 21:00:00 14.53333 C 11.76 g/m*3 14.53 C 0.53333 km/h
92 05-06-2014 00:00:00 13.24 C 10.34 g/m*3 13.24 C 12.24 km/h
93 05-06-2014 01:00:00 12.54167 C 9.79 g/m*3 12.54 C 4.825 km/h
94 05-06-2014 02:00:00 12.03333 C 9.42 g/m*3 12.03 C 4.15833 km/h
95 05-06-2014 03:00:00 10.96667 C 8 g/m*3 9.71 C 10.46667 km/h
96 05-06-2014 04:00:00 8.83333 C 7.97 g/m*3 8.83 C 1.73333 km/h
97 05-06-2014 05:00:00 8.74167 C 7.94 g/m*3 8.74 C 0.53333 km/h
98 05-06-2014 06:00:00 8.65833 C 8.18 g/m*3 8.66 C 0 km/h
99 05-06-2014 07:00:00 9.61667 C 8.52 g/m*3 9.17 C 5.50833 km/h
100 05-06-2014 08:00:00 11.96667 C 8.79 g/m*3 11.97 C 9.125 km/h
Sensor: Nr:Datum:Temp:Abs-Feuchte:Windchill:Wind:
Aussen-T/F 101 05-06-2014 09:00:00 13.39167 C 8.57 g/m*3 13.39 C 13.69167 km/h
102 05-06-2014 10:00:00 14.75833 C 8.28 g/m*3 14.76 C 17.44167 km/h
103 05-06-2014 11:00:00 15.88333 C 8.21 g/m*3 15.88 C 17.96667 km/h
104 05-06-2014 12:00:00 16.85 C 7.93 g/m*3 16.85 C 18.90833 km/h
105 05-06-2014 13:00:00 17.69167 C 7.77 g/m*3 17.69 C 15.3 km/h
106 05-06-2014 14:00:00 17.98333 C 7.61 g/m*3 17.98 C 13.95833 km/h
107 05-06-2014 15:00:00 18.54167 C 7.59 g/m*3 18.54 C 14.76667 km/h
108 05-06-2014 16:00:00 19.675 C 7.4 g/m*3 19.68 C 15.7 km/h
109 05-06-2014 17:00:00 19.10833 C 7.38 g/m*3 19.11 C 10.61667 km/h
110 05-06-2014 18:00:00 20.725 C 7.2 g/m*3 20.73 C 15.96667 km/h
111 05-06-2014 19:00:00 19.84167 C 6.83 g/m*3 19.84 C 13.83333 km/h
112 05-06-2014 20:00:00 18.48333 C 7.61 g/m*3 18.48 C 6.30833 km/h
113 05-06-2014 21:00:00 15.09167 C 8.57 g/m*3 15.09 C 1.46667 km/h
114 05-06-2014 22:00:00 12.8 C 8.29 g/m*3 12.8 C 0 km/h
115 05-06-2014 23:00:00 11.19167 C 7.86 g/m*3 11.19 C 0.53333 km/h
116 06-06-2014 00:00:00 10.025 C 7.73 g/m*3 10.03 C 0.13333 km/h
117 06-06-2014 01:00:00 9.14167 C 7.61 g/m*3 9.14 C 0 km/h
118 06-06-2014 02:00:00 8.51667 C 7.43 g/m*3 8.52 C 0 km/h
119 06-06-2014 03:00:00 7.95 C 7.33 g/m*3 7.95 C 0 km/h
120 06-06-2014 04:00:00 7.30833 C 7.21 g/m*3 7.31 C 0.13333 km/h
121 06-06-2014 05:00:00 6.90833 C 7.15 g/m*3 6.91 C 0 km/h
122 06-06-2014 06:00:00 6.89167 C 7.23 g/m*3 6.89 C 0 km/h
123 06-06-2014 07:00:00 7.76667 C 7.65 g/m*3 7.77 C 0.13333 km/h
124 06-06-2014 08:00:00 10.88333 C 8.58 g/m*3 10.88 C 0.13333 km/h
125 06-06-2014 09:00:00 13.575 C 9.2 g/m*3 13.58 C 2 km/h
Sensor: Nr:Datum:Temp:Abs-Feuchte:Windchill:Wind:
Aussen-T/F 126 06-06-2014 10:00:00 16.58333 C 10.14 g/m*3 16.58 C 2.13333 km/h
127 06-06-2014 11:00:00 19.63333 C 10.83 g/m*3 19.63 C 6.31667 km/h
128 06-06-2014 12:00:00 23.175 C 9.79 g/m*3 23.18 C 7.36667 km/h
129 06-06-2014 13:00:00 24.70833 C 9.45 g/m*3 24.71 C 7.1 km/h
130 06-06-2014 14:00:00 25.96667 C 9.88 g/m*3 25.97 C 10.46667 km/h
131 06-06-2014 15:00:00 26.93333 C 9.79 g/m*3 26.93 C 6.975 km/h
132 06-06-2014 16:00:00 27.50833 C 9.86 g/m*3 27.51 C 7.375 km/h
133 06-06-2014 17:00:00 27.23333 C 10.56 g/m*3 27.23 C 4.825 km/h
134 06-06-2014 18:00:00 28.075 C 10.54 g/m*3 28.08 C 9.15 km/h
135 06-06-2014 19:00:00 26.5 C 11.26 g/m*3 26.5 C 5.63333 km/h
136 06-06-2014 20:00:00 22.40833 C 12.63 g/m*3 22.41 C 1.06667 km/h
137 06-06-2014 21:00:00 19.74167 C 11.9 g/m*3 19.74 C 1.33333 km/h
138 06-06-2014 22:00:00 18.18333 C 11.34 g/m*3 18.18 C 0.8 km/h
139 06-06-2014 23:00:00 17.25833 C 11.05 g/m*3 17.26 C 0.4 km/h
140 07-06-2014 00:00:00 15.95833 C 10.52 g/m*3 15.96 C 0.4 km/h
141 07-06-2014 01:00:00 14.71667 C 10.29 g/m*3 14.72 C 0 km/h
142 07-06-2014 02:00:00 13.9 C 10.01 g/m*3 13.9 C 0 km/h
143 07-06-2014 03:00:00 13.11667 C 9.84 g/m*3 13.12 C 0 km/h
144 07-06-2014 04:00:00 12.44167 C 9.69 g/m*3 12.44 C 0 km/h
145 07-06-2014 05:00:00 12.09167 C 9.7 g/m*3 12.09 C 0 km/h
146 07-06-2014 06:00:00 12.21667 C 9.88 g/m*3 12.22 C 0 km/h
147 07-06-2014 07:00:00 13.21667 C 10.4 g/m*3 13.22 C 0.13333 km/h
148 07-06-2014 08:00:00 15.825 C 11.3 g/m*3 15.83 C 0 km/h
149 07-06-2014 09:00:00 17.45833 C 12.07 g/m*3 17.46 C 0.13333 km/h
150 07-06-2014 10:00:00 20.30833 C 13.55 g/m*3 20.31 C 0 km/h
Sensor: Nr:Datum:Temp:Abs-Feuchte:Windchill:Wind:
Aussen-T/F 151 07-06-2014 11:00:00 24.58333 C 14.22 g/m*3 24.58 C 3.88333 km/h
152 07-06-2014 12:00:00 28.63333 C 13.49 g/m*3 28.63 C 6.01667 km/h
153 07-06-2014 13:00:00 29.825 C 13.24 g/m*3 29.83 C 6.31667 km/h
154 07-06-2014 14:00:00 30.60833 C 12.74 g/m*3 30.61 C 6.975 km/h
155 07-06-2014 15:00:00 30.89167 C 12.99 g/m*3 30.89 C 4.68333 km/h
156 07-06-2014 16:00:00 27.85 C 16.12 g/m*3 27.85 C 1.6 km/h
157 07-06-2014 17:00:00 25.48333 C 16.36 g/m*3 25.48 C 0.4 km/h
158 07-06-2014 18:00:00 26.41667 C 17.34 g/m*3 26.42 C 0.8 km/h
159 07-06-2014 19:00:00 24.9 C 16.4 g/m*3 24.9 C 0.53333 km/h
160 07-06-2014 20:00:00 24.28333 C 15.55 g/m*3 24.28 C 0.53333 km/h
161 07-06-2014 21:00:00 22.44167 C 14.63 g/m*3 22.44 C 1.33333 km/h
162 07-06-2014 22:00:00 21.15833 C 14.07 g/m*3 21.16 C 0.93333 km/h
163 07-06-2014 23:00:00 20.21667 C 13.72 g/m*3 20.22 C 0.4 km/h

Maximal/Minimal-Werte vom 01.06.2014 - 07.06.2014

Sensor Min Max Avg
Temp
(Aussen-T/F)
6.8 °C
06-06-2014  05:30:00
31.3 °C
07-06-2014  15:25:00
16.46 °C
Abs-Feuchte
(Aussen-T/F)
6.83 g/m*3
05-06-2014  19:00:00
17.34 g/m*3
07-06-2014  18:00:00
9.81 g/m*3
Windchill
(Aussen-T/F)
6.89 C
06-06-2014  06:00:00
30.89 C
07-06-2014  15:00:00
16.43 C

Die Daten stammen von einer Davis Vantage Pro 2 Wetter-Station und werden unter Linux mit der Software wview2wettercgi und aufbereitet. Alle Angaben erfolgen ohne Gewähr für ihre Vollständigkeit oder Richtigkeit.
Kontakt: Rainer Krienke krienke@uni-koblenz.de . Meine Webseiten an der Uni Koblenz oder privat.
Version: $Revision: 0.78 $